createdAt,value
2023-08-05T00:00:42.507Z,989.54
2023-08-05T00:01:42.581Z,989.53
2023-08-05T00:02:42.547Z,989.52
2023-08-05T00:03:42.487Z,989.56
2023-08-05T00:04:43.441Z,989.57
2023-08-05T00:05:43.400Z,989.52
2023-08-05T00:06:42.439Z,989.57
2023-08-05T00:07:42.390Z,989.55
2023-08-05T00:08:42.383Z,989.56
2023-08-05T00:09:42.405Z,989.53
2023-08-05T00:10:42.378Z,989.58
2023-08-05T00:11:42.354Z,989.56
2023-08-05T00:12:42.338Z,989.53
2023-08-05T00:13:42.369Z,989.63
2023-08-05T00:14:42.319Z,989.63
2023-08-05T00:15:42.288Z,989.56
2023-08-05T00:16:42.384Z,989.53
2023-08-05T00:17:42.317Z,989.54
2023-08-05T00:18:42.271Z,989.57
2023-08-05T00:19:42.264Z,989.60
2023-08-05T00:20:42.256Z,989.63
2023-08-05T00:21:42.284Z,989.63
2023-08-05T00:22:42.228Z,989.65
2023-08-05T00:23:42.236Z,989.67
2023-08-05T00:24:42.207Z,989.64
2023-08-05T00:25:42.208Z,989.59
2023-08-05T00:26:42.202Z,989.59
2023-08-05T00:27:42.191Z,989.53
2023-08-05T00:28:42.178Z,989.57
2023-08-05T00:29:42.141Z,989.60
2023-08-05T00:30:42.152Z,989.59
2023-08-05T00:31:42.139Z,989.61
2023-08-05T00:32:42.146Z,989.61
2023-08-05T00:33:42.130Z,989.59
2023-08-05T00:34:42.107Z,989.62
2023-08-05T00:35:42.067Z,989.53
2023-08-05T00:36:42.064Z,989.53
2023-08-05T00:37:42.137Z,989.53
2023-08-05T00:38:42.045Z,989.55
2023-08-05T00:39:42.047Z,989.58
2023-08-05T00:40:42.020Z,989.57
2023-08-05T00:41:41.987Z,989.52
2023-08-05T00:42:42.015Z,989.55
2023-08-05T00:43:41.992Z,989.58
2023-08-05T00:44:41.967Z,989.59
2023-08-05T00:45:42.003Z,989.55
2023-08-05T00:46:42.947Z,989.57
2023-08-05T00:47:42.006Z,989.54
2023-08-05T00:48:41.963Z,989.52
2023-08-05T00:49:41.891Z,989.54
2023-08-05T00:50:41.899Z,989.54
2023-08-05T00:51:41.924Z,989.55
2023-08-05T00:52:41.907Z,989.57
2023-08-05T00:53:41.869Z,989.49
2023-08-05T00:54:41.879Z,989.45
2023-08-05T00:55:41.827Z,989.41
2023-08-05T00:56:41.866Z,989.36
2023-08-05T00:57:41.851Z,989.47
2023-08-05T00:58:41.816Z,989.43
2023-08-05T00:59:41.798Z,989.50
2023-08-05T01:00:41.805Z,989.48
2023-08-05T01:01:41.841Z,989.43
2023-08-05T01:02:41.812Z,989.36
2023-08-05T01:03:41.771Z,989.41
2023-08-05T01:04:41.761Z,989.36
2023-08-05T01:05:41.786Z,989.36
2023-08-05T01:06:41.726Z,989.38
2023-08-05T01:07:41.718Z,989.40
2023-08-05T01:08:41.702Z,989.40
2023-08-05T01:09:41.675Z,989.39
2023-08-05T01:10:41.685Z,989.45
2023-08-05T01:11:41.682Z,989.44
2023-08-05T01:12:41.646Z,989.38
2023-08-05T01:13:41.646Z,989.41
2023-08-05T01:14:41.664Z,989.33
2023-08-05T01:15:41.636Z,989.39
2023-08-05T01:16:41.590Z,989.40
2023-08-05T01:17:41.651Z,989.39
2023-08-05T01:18:41.574Z,989.41
2023-08-05T01:19:41.565Z,989.42
2023-08-05T01:20:41.581Z,989.44
2023-08-05T01:21:41.551Z,989.45
2023-08-05T01:22:41.585Z,989.47
2023-08-05T01:23:41.515Z,989.47
2023-08-05T01:24:41.495Z,989.51
2023-08-05T01:25:41.538Z,989.51
2023-08-05T01:26:41.480Z,989.54
2023-08-05T01:27:41.501Z,989.53
2023-08-05T01:28:41.457Z,989.56
2023-08-05T01:29:41.439Z,989.60
2023-08-05T01:30:41.436Z,989.68
2023-08-05T01:31:41.462Z,989.59
2023-08-05T01:32:41.468Z,989.61
2023-08-05T01:33:41.395Z,989.65
2023-08-05T01:34:41.412Z,989.65
2023-08-05T01:35:41.380Z,989.71
2023-08-05T01:36:41.369Z,989.70
2023-08-05T01:37:41.367Z,989.73
2023-08-05T01:38:41.365Z,989.70
2023-08-05T01:39:41.331Z,989.73
2023-08-05T01:40:41.318Z,989.76
2023-08-05T01:41:41.338Z,989.75
2023-08-05T01:42:41.283Z,989.68
2023-08-05T01:43:41.314Z,989.67
2023-08-05T01:44:41.301Z,989.66
2023-08-05T01:45:41.250Z,989.70
2023-08-05T01:46:41.282Z,989.68
2023-08-05T01:47:41.340Z,989.61
2023-08-05T01:48:41.248Z,989.64
2023-08-05T01:49:41.206Z,989.62
2023-08-05T01:50:41.246Z,989.56
2023-08-05T01:51:41.212Z,989.50
2023-08-05T01:52:41.200Z,989.52
2023-08-05T01:53:41.204Z,989.51
2023-08-05T01:54:42.173Z,989.49
2023-08-05T01:55:41.147Z,989.48
2023-08-05T01:56:41.164Z,989.47
2023-08-05T01:57:41.173Z,989.54
2023-08-05T01:58:41.136Z,989.48
2023-08-05T01:59:41.149Z,989.47
2023-08-05T02:00:41.234Z,989.51
2023-08-05T02:01:41.071Z,989.47
2023-08-05T02:02:41.179Z,989.52
2023-08-05T02:03:41.201Z,989.50
2023-08-05T02:04:41.066Z,989.53
2023-08-05T02:05:41.049Z,989.54
2023-08-05T02:06:41.061Z,989.52
2023-08-05T02:07:41.024Z,989.51
2023-08-05T02:08:41.033Z,989.54
2023-08-05T02:09:41.018Z,989.49
2023-08-05T02:10:41.016Z,989.47
2023-08-05T02:11:40.981Z,989.52
2023-08-05T02:12:40.971Z,989.46
2023-08-05T02:13:40.983Z,989.51
2023-08-05T02:14:40.971Z,989.50
2023-08-05T02:15:40.949Z,989.54
2023-08-05T02:16:40.954Z,989.46
2023-08-05T02:17:40.945Z,989.45
2023-08-05T02:18:40.898Z,989.51
2023-08-05T02:19:40.929Z,989.47
2023-08-05T02:20:40.893Z,989.48
2023-08-05T02:21:40.864Z,989.51
2023-08-05T02:22:40.846Z,989.47
2023-08-05T02:23:40.884Z,989.51
2023-08-05T02:24:40.841Z,989.51
2023-08-05T02:25:40.798Z,989.48
2023-08-05T02:26:40.851Z,989.51
2023-08-05T02:27:40.822Z,989.45
2023-08-05T02:28:40.786Z,989.51
2023-08-05T02:29:40.780Z,989.42
2023-08-05T02:30:40.818Z,989.45
2023-08-05T02:31:40.754Z,989.47
2023-08-05T02:32:40.770Z,989.53
2023-08-05T02:33:40.751Z,989.55
2023-08-05T02:34:40.721Z,989.54
2023-08-05T02:35:40.721Z,989.52
2023-08-05T02:36:40.709Z,989.51
2023-08-05T02:37:40.713Z,989.44
2023-08-05T02:38:40.670Z,989.49
2023-08-05T02:39:40.706Z,989.45
2023-08-05T02:40:40.651Z,989.44
2023-08-05T02:41:40.644Z,989.45
2023-08-05T02:42:40.645Z,989.38
2023-08-05T02:43:40.638Z,989.35
2023-08-05T02:44:40.626Z,989.32
2023-08-05T02:45:40.604Z,989.28
2023-08-05T02:46:40.632Z,989.35
2023-08-05T02:47:40.613Z,989.27
2023-08-05T02:48:40.562Z,989.27
2023-08-05T02:49:40.574Z,989.28
2023-08-05T02:50:40.576Z,989.29
2023-08-05T02:51:40.520Z,989.25
2023-08-05T02:52:40.554Z,989.33
2023-08-05T02:53:40.586Z,989.35
2023-08-05T02:54:40.514Z,989.37
2023-08-05T02:55:40.530Z,989.35
2023-08-05T02:56:40.499Z,989.36
2023-08-05T02:57:40.503Z,989.32
2023-08-05T02:58:40.476Z,989.36
2023-08-05T02:59:40.450Z,989.34
2023-08-05T03:00:40.434Z,989.35
2023-08-05T03:01:40.559Z,989.33
2023-08-05T03:02:40.427Z,989.28
2023-08-05T03:03:40.438Z,989.30
2023-08-05T03:04:40.391Z,989.33
2023-08-05T03:05:40.477Z,989.31
2023-08-05T03:06:40.375Z,989.34
2023-08-05T03:07:40.367Z,989.34
2023-08-05T03:08:40.353Z,989.34
2023-08-05T03:09:40.335Z,989.33
2023-08-05T03:10:40.354Z,989.38
2023-08-05T03:11:40.309Z,989.31
2023-08-05T03:12:40.291Z,989.40
2023-08-05T03:13:40.304Z,989.32
2023-08-05T03:14:40.296Z,989.31
2023-08-05T03:15:40.240Z,989.32
2023-08-05T03:16:40.290Z,989.38
2023-08-05T03:17:40.318Z,989.35
2023-08-05T03:18:40.205Z,989.39
2023-08-05T03:19:40.233Z,989.37
2023-08-05T03:20:40.216Z,989.41
2023-08-05T03:21:40.197Z,989.38
2023-08-05T03:22:40.179Z,989.34
2023-08-05T03:23:40.196Z,989.43
2023-08-05T03:24:40.165Z,989.41
2023-08-05T03:25:40.136Z,989.41
2023-08-05T03:26:40.148Z,989.39
2023-08-05T03:27:40.141Z,989.42
2023-08-05T03:28:40.122Z,989.41
2023-08-05T03:29:40.102Z,989.40
2023-08-05T03:30:40.092Z,989.43
2023-08-05T03:31:40.184Z,989.41
2023-08-05T03:32:40.136Z,989.42
2023-08-05T03:33:40.040Z,989.43
2023-08-05T03:34:40.067Z,989.52
2023-08-05T03:35:40.047Z,989.49
2023-08-05T03:36:40.047Z,989.50
2023-08-05T03:37:40.036Z,989.53
2023-08-05T03:38:40.023Z,989.49
2023-08-05T03:39:39.984Z,989.57
2023-08-05T03:40:39.975Z,989.53
2023-08-05T03:41:40.036Z,989.54
2023-08-05T03:42:39.954Z,989.55
2023-08-05T03:43:39.974Z,989.48
2023-08-05T03:44:39.958Z,989.51
2023-08-05T03:45:39.916Z,989.47
2023-08-05T03:46:39.947Z,989.45
2023-08-05T03:47:39.984Z,989.43
2023-08-05T03:48:39.910Z,989.43
2023-08-05T03:49:39.886Z,989.34
2023-08-05T03:50:39.990Z,989.27
2023-08-05T03:51:39.853Z,989.31
2023-08-05T03:52:41.527Z,989.27
2023-08-05T03:53:40.876Z,989.24
2023-08-05T03:54:39.838Z,989.19
2023-08-05T03:55:39.827Z,989.24
2023-08-05T03:56:39.821Z,989.21
2023-08-05T03:57:39.815Z,989.23
2023-08-05T03:58:39.797Z,989.25
2023-08-05T03:59:39.764Z,989.23
2023-08-05T04:00:39.766Z,989.21
2023-08-05T04:01:39.842Z,989.22
2023-08-05T04:02:39.817Z,989.26
2023-08-05T04:03:39.721Z,989.22
2023-08-05T04:04:39.737Z,989.29
2023-08-05T04:05:39.731Z,989.30
2023-08-05T04:06:39.682Z,989.23
2023-08-05T04:07:39.704Z,989.20
2023-08-05T04:08:39.678Z,989.19
2023-08-05T04:09:39.685Z,989.15
2023-08-05T04:10:39.669Z,989.13
2023-08-05T04:11:39.683Z,989.21
2023-08-05T04:12:39.645Z,989.18
2023-08-05T04:13:39.621Z,989.20
2023-08-05T04:14:39.663Z,989.18
2023-08-05T04:15:39.632Z,989.22
2023-08-05T04:16:39.588Z,989.25
2023-08-05T04:17:39.599Z,989.29
2023-08-05T04:18:39.564Z,989.32
2023-08-05T04:19:39.562Z,989.31
2023-08-05T04:20:39.540Z,989.31
2023-08-05T04:21:39.542Z,989.30
2023-08-05T04:22:39.519Z,989.32
2023-08-05T04:23:39.518Z,989.35
2023-08-05T04:24:39.511Z,989.36
2023-08-05T04:25:39.468Z,989.37
2023-08-05T04:26:39.466Z,989.35
2023-08-05T04:27:39.473Z,989.44
2023-08-05T04:28:39.463Z,989.34
2023-08-05T04:29:39.430Z,989.37
2023-08-05T04:30:39.428Z,989.46
2023-08-05T04:31:39.528Z,989.47
2023-08-05T04:32:39.447Z,989.52
2023-08-05T04:33:39.370Z,989.59
2023-08-05T04:34:39.390Z,989.54
2023-08-05T04:35:39.409Z,989.58
2023-08-05T04:36:39.361Z,989.49
2023-08-05T04:37:39.356Z,989.59
2023-08-05T04:38:39.357Z,989.55
2023-08-05T04:39:39.300Z,989.52
2023-08-05T04:40:39.328Z,989.57
2023-08-05T04:41:39.312Z,989.49
2023-08-05T04:42:39.292Z,989.52
2023-08-05T04:43:39.273Z,989.58
2023-08-05T04:44:39.258Z,989.56
2023-08-05T04:45:39.292Z,989.62
2023-08-05T04:46:39.247Z,989.60
2023-08-05T04:47:39.274Z,989.61
2023-08-05T04:48:39.229Z,989.58
2023-08-05T04:49:39.209Z,989.68
2023-08-05T04:50:39.210Z,989.62
2023-08-05T04:51:39.206Z,989.63
2023-08-05T04:52:39.180Z,989.61
2023-08-05T04:53:39.143Z,989.61
2023-08-05T04:54:39.179Z,989.65
2023-08-05T04:55:39.124Z,989.66
2023-08-05T04:56:39.140Z,989.67
2023-08-05T04:57:39.122Z,989.67
2023-08-05T04:58:39.116Z,989.62
2023-08-05T04:59:39.061Z,989.77
2023-08-05T05:00:39.070Z,989.68
2023-08-05T05:01:39.128Z,989.68
2023-08-05T05:02:39.086Z,989.74
2023-08-05T05:03:39.046Z,989.66
2023-08-05T05:04:40.062Z,989.72
2023-08-05T05:05:39.050Z,989.67
2023-08-05T05:06:39.006Z,989.70
2023-08-05T05:07:39.020Z,989.62
2023-08-05T05:08:38.979Z,989.60
2023-08-05T05:09:38.985Z,989.67
2023-08-05T05:10:39.952Z,989.54
2023-08-05T05:11:38.982Z,989.63
2023-08-05T05:12:39.020Z,989.57
2023-08-05T05:13:38.909Z,989.57
2023-08-05T05:14:38.915Z,989.60
2023-08-05T05:15:38.969Z,989.64
2023-08-05T05:16:38.908Z,989.65
2023-08-05T05:17:38.924Z,989.60
2023-08-05T05:18:38.922Z,989.66
2023-08-05T05:19:38.855Z,989.61
2023-08-05T05:20:38.862Z,989.51
2023-08-05T05:21:38.876Z,989.55
2023-08-05T05:22:38.842Z,989.53
2023-08-05T05:23:38.812Z,989.50
2023-08-05T05:24:38.824Z,989.53
2023-08-05T05:25:38.835Z,989.61
2023-08-05T05:26:38.793Z,989.55
2023-08-05T05:27:38.825Z,989.56
2023-08-05T05:28:38.766Z,989.60
2023-08-05T05:29:38.748Z,989.59
2023-08-05T05:30:38.761Z,989.63
2023-08-05T05:31:38.744Z,989.61
2023-08-05T05:32:38.754Z,989.60
2023-08-05T05:33:38.699Z,989.52
2023-08-05T05:34:38.700Z,989.51
2023-08-05T05:35:38.703Z,989.50
2023-08-05T05:36:38.693Z,989.50
2023-08-05T05:37:38.660Z,989.50
2023-08-05T05:38:38.653Z,989.48
2023-08-05T05:39:38.662Z,989.49
2023-08-05T05:40:38.632Z,989.44
2023-08-05T05:41:38.613Z,989.51
2023-08-05T05:42:38.633Z,989.43
2023-08-05T05:43:38.572Z,989.47
2023-08-05T05:44:38.590Z,989.41
2023-08-05T05:45:38.619Z,989.34
2023-08-05T05:46:38.628Z,989.35
2023-08-05T05:47:38.542Z,989.37
2023-08-05T05:48:38.565Z,989.31
2023-08-05T05:49:38.542Z,989.32
2023-08-05T05:50:39.520Z,989.37
2023-08-05T05:51:38.535Z,989.39
2023-08-05T05:52:38.503Z,989.37
2023-08-05T05:53:38.477Z,989.42
2023-08-05T05:54:38.488Z,989.44
2023-08-05T05:55:38.481Z,989.42
2023-08-05T05:56:38.482Z,989.41
2023-08-05T05:57:38.453Z,989.38
2023-08-05T05:58:38.462Z,989.40
2023-08-05T05:59:38.413Z,989.43
2023-08-05T06:00:38.460Z,989.41
2023-08-05T06:01:38.417Z,989.45
2023-08-05T06:02:38.437Z,989.43
2023-08-05T06:03:38.524Z,989.38
2023-08-05T06:04:38.530Z,989.43
2023-08-05T06:05:38.385Z,989.43
2023-08-05T06:06:38.344Z,989.44
2023-08-05T06:07:38.364Z,989.44
2023-08-05T06:08:38.349Z,989.40
2023-08-05T06:09:38.311Z,989.44
2023-08-05T06:10:38.302Z,989.38
2023-08-05T06:11:38.299Z,989.47
2023-08-05T06:12:38.301Z,989.43
2023-08-05T06:13:38.309Z,989.42
2023-08-05T06:14:38.275Z,989.42
2023-08-05T06:15:38.254Z,989.39
2023-08-05T06:16:38.241Z,989.37
2023-08-05T06:17:38.288Z,989.42
2023-08-05T06:18:38.243Z,989.38
2023-08-05T06:19:38.183Z,989.42
2023-08-05T06:20:38.222Z,989.25
2023-08-05T06:21:38.202Z,989.29
2023-08-05T06:22:38.158Z,989.29
2023-08-05T06:23:38.207Z,989.29
2023-08-05T06:24:38.159Z,989.24
2023-08-05T06:25:38.132Z,989.21
2023-08-05T06:26:38.122Z,989.11
2023-08-05T06:27:38.163Z,989.15
2023-08-05T06:28:38.108Z,989.14
2023-08-05T06:29:38.073Z,989.09
2023-08-05T06:30:38.123Z,989.03
2023-08-05T06:31:38.055Z,989.02
2023-08-05T06:32:38.075Z,989.10
2023-08-05T06:33:38.075Z,989.02
2023-08-05T06:34:38.060Z,988.96
2023-08-05T06:35:38.028Z,989.01
2023-08-05T06:36:38.029Z,989.03
2023-08-05T06:37:38.026Z,988.98
2023-08-05T06:38:37.995Z,989.01
2023-08-05T06:39:37.994Z,989.03
2023-08-05T06:40:37.987Z,988.98
2023-08-05T06:41:37.991Z,989.02
2023-08-05T06:42:39.007Z,988.97
2023-08-05T06:43:37.943Z,988.97
2023-08-05T06:44:37.941Z,988.93
2023-08-05T06:45:37.940Z,988.85
2023-08-05T06:46:37.978Z,988.90
2023-08-05T06:47:37.955Z,988.90
2023-08-05T06:48:37.933Z,988.85
2023-08-05T06:49:37.876Z,988.86
2023-08-05T06:50:37.876Z,988.85
2023-08-05T06:51:37.894Z,988.81
2023-08-05T06:52:37.879Z,988.83
2023-08-05T06:53:37.837Z,988.84
2023-08-05T06:54:37.852Z,988.89
2023-08-05T06:55:37.820Z,988.81
2023-08-05T06:56:37.811Z,988.85
2023-08-05T06:57:37.855Z,988.78
2023-08-05T06:58:37.821Z,988.72
2023-08-05T06:59:37.755Z,988.75
2023-08-05T07:00:37.783Z,988.70
2023-08-05T07:01:37.844Z,988.60
2023-08-05T07:02:37.782Z,988.64
2023-08-05T07:03:37.783Z,988.63
2023-08-05T07:04:37.747Z,988.66
2023-08-05T07:05:37.699Z,988.61
2023-08-05T07:06:37.704Z,988.61
2023-08-05T07:07:37.733Z,988.58
2023-08-05T07:08:37.727Z,988.51
2023-08-05T07:09:37.650Z,988.50
2023-08-05T07:10:37.678Z,988.48
2023-08-05T07:11:37.708Z,988.49
2023-08-05T07:12:37.643Z,988.47
2023-08-05T07:13:37.616Z,988.50
2023-08-05T07:14:37.656Z,988.45
2023-08-05T07:15:37.645Z,988.40
2023-08-05T07:16:37.674Z,988.34
2023-08-05T07:17:37.579Z,988.38
2023-08-05T07:18:37.609Z,988.29
2023-08-05T07:19:37.566Z,988.36
2023-08-05T07:20:37.582Z,988.34
2023-08-05T07:21:37.564Z,988.34
2023-08-05T07:22:37.565Z,988.28
2023-08-05T07:23:37.540Z,988.37
2023-08-05T07:24:37.549Z,988.32
2023-08-05T07:25:37.541Z,988.32
2023-08-05T07:26:37.489Z,988.32
2023-08-05T07:27:37.504Z,988.26
2023-08-05T07:28:37.515Z,988.30
2023-08-05T07:29:37.488Z,988.41
2023-08-05T07:30:37.468Z,988.38
2023-08-05T07:31:37.521Z,988.35
2023-08-05T07:32:37.522Z,988.38
2023-08-05T07:33:37.425Z,988.38
2023-08-05T07:34:37.464Z,988.41
2023-08-05T07:35:37.404Z,988.38
2023-08-05T07:36:37.401Z,988.33
2023-08-05T07:37:37.423Z,988.30
2023-08-05T07:38:37.412Z,988.29
2023-08-05T07:39:37.362Z,988.29
2023-08-05T07:40:37.365Z,988.29
2023-08-05T07:41:37.405Z,988.27
2023-08-05T07:42:37.354Z,988.26
2023-08-05T07:43:37.310Z,988.27
2023-08-05T07:44:37.391Z,988.26
2023-08-05T07:45:37.387Z,988.20
2023-08-05T07:46:37.286Z,988.16
2023-08-05T07:47:37.339Z,988.17
2023-08-05T07:48:37.321Z,988.19
2023-08-05T07:49:37.299Z,988.21
2023-08-05T07:50:37.252Z,988.19
2023-08-05T07:51:37.266Z,988.13
2023-08-05T07:52:37.243Z,988.07
2023-08-05T07:53:37.227Z,988.16
2023-08-05T07:54:37.245Z,988.10
2023-08-05T07:55:37.232Z,988.11
2023-08-05T07:56:37.193Z,988.12
2023-08-05T07:57:37.204Z,988.07
2023-08-05T07:58:37.204Z,988.05
2023-08-05T07:59:37.144Z,988.07
2023-08-05T08:00:37.159Z,988.03
2023-08-05T08:01:37.250Z,988.00
2023-08-05T08:02:37.152Z,988.02
2023-08-05T08:03:37.141Z,987.99
2023-08-05T08:04:37.102Z,987.97
2023-08-05T08:05:37.119Z,987.95
2023-08-05T08:06:37.079Z,987.97
2023-08-05T08:07:37.134Z,987.96
2023-08-05T08:08:37.104Z,987.95
2023-08-05T08:09:37.028Z,988.01
2023-08-05T08:10:37.056Z,987.95
2023-08-05T08:11:37.072Z,988.01
2023-08-05T08:12:37.040Z,987.93
2023-08-05T08:13:37.005Z,987.93
2023-08-05T08:14:37.041Z,987.97
2023-08-05T08:15:36.962Z,987.94
2023-08-05T08:16:38.014Z,987.88
2023-08-05T08:17:39.974Z,987.91
2023-08-05T08:18:36.990Z,987.87
2023-08-05T08:19:37.949Z,987.87
2023-08-05T08:20:36.931Z,987.85
2023-08-05T08:21:36.961Z,987.90
2023-08-05T08:22:36.930Z,987.84
2023-08-05T08:23:36.922Z,987.84
2023-08-05T08:24:36.905Z,987.80
2023-08-05T08:25:36.877Z,987.90
2023-08-05T08:26:36.906Z,987.87
2023-08-05T08:27:36.903Z,987.79
2023-08-05T08:28:36.856Z,987.80
2023-08-05T08:29:36.822Z,987.78
2023-08-05T08:30:36.874Z,987.84
2023-08-05T08:31:36.819Z,987.81
2023-08-05T08:32:36.853Z,987.79
2023-08-05T08:33:36.884Z,987.86
2023-08-05T08:34:36.796Z,987.85
2023-08-05T08:35:36.764Z,987.83
2023-08-05T08:36:36.804Z,987.86
2023-08-05T08:37:36.769Z,987.87
2023-08-05T08:38:36.750Z,987.83
2023-08-05T08:39:37.796Z,987.79
2023-08-05T08:40:36.742Z,987.74
2023-08-05T08:41:39.017Z,987.71
2023-08-05T08:42:36.695Z,987.73
2023-08-05T08:43:36.709Z,987.69
2023-08-05T08:44:36.678Z,987.69
2023-08-05T08:45:36.678Z,987.69
2023-08-05T08:46:36.670Z,987.66
2023-08-05T08:47:36.725Z,987.65
2023-08-05T08:48:36.670Z,987.66
2023-08-05T08:49:36.610Z,987.64
2023-08-05T08:50:36.605Z,987.59
2023-08-05T08:51:36.636Z,987.60
2023-08-05T08:52:36.585Z,987.56
2023-08-05T08:53:36.593Z,987.61
2023-08-05T08:54:36.580Z,987.53
2023-08-05T08:55:36.545Z,987.51
2023-08-05T08:56:36.541Z,987.55
2023-08-05T08:57:36.575Z,987.56
2023-08-05T08:58:36.535Z,987.60
2023-08-05T08:59:36.489Z,987.52
2023-08-05T09:00:36.510Z,987.52
2023-08-05T09:01:36.521Z,987.45
2023-08-05T09:02:36.506Z,987.46
2023-08-05T09:03:36.519Z,987.43
2023-08-05T09:04:36.448Z,987.51
2023-08-05T09:05:36.453Z,987.51
2023-08-05T09:06:36.454Z,987.51
2023-08-05T09:07:36.447Z,987.51
2023-08-05T09:08:36.410Z,987.52
2023-08-05T09:09:36.392Z,987.54
2023-08-05T09:10:36.408Z,987.57
2023-08-05T09:11:36.356Z,987.59
2023-08-05T09:12:36.365Z,987.67
2023-08-05T09:13:36.378Z,987.61
2023-08-05T09:14:36.357Z,987.61
2023-08-05T09:15:36.323Z,987.61
2023-08-05T09:16:36.366Z,987.65
2023-08-05T09:17:36.344Z,987.56
2023-08-05T09:18:36.299Z,987.53
2023-08-05T09:19:36.272Z,987.50
2023-08-05T09:20:36.287Z,987.46
2023-08-05T09:21:36.305Z,987.45
2023-08-05T09:22:36.256Z,987.42
2023-08-05T09:23:36.280Z,987.42
2023-08-05T09:24:36.226Z,987.38
2023-08-05T09:25:36.246Z,987.46
2023-08-05T09:26:36.217Z,987.46
2023-08-05T09:27:36.215Z,987.43
2023-08-05T09:28:36.186Z,987.43
2023-08-05T09:29:36.174Z,987.36
2023-08-05T09:30:36.178Z,987.42
2023-08-05T09:31:36.231Z,987.26
2023-08-05T09:32:37.965Z,987.24
2023-08-05T09:33:37.118Z,987.21
2023-08-05T09:34:36.145Z,987.26
2023-08-05T09:35:36.101Z,987.23
2023-08-05T09:36:36.126Z,987.24
2023-08-05T09:37:36.130Z,987.18
2023-08-05T09:38:36.080Z,987.26
2023-08-05T09:39:36.057Z,987.19
2023-08-05T09:40:36.058Z,987.18
2023-08-05T09:41:36.055Z,987.15
2023-08-05T09:42:36.019Z,987.14
2023-08-05T09:43:36.045Z,987.15
2023-08-05T09:44:36.026Z,987.17
2023-08-05T09:45:36.001Z,987.12
2023-08-05T09:46:36.036Z,987.13
2023-08-05T09:47:37.054Z,987.14
2023-08-05T09:48:35.975Z,987.09
2023-08-05T09:49:35.958Z,987.08
2023-08-05T09:50:35.949Z,987.10
2023-08-05T09:51:35.943Z,987.03
2023-08-05T09:52:35.951Z,986.95
2023-08-05T09:53:35.890Z,987.00
2023-08-05T09:54:35.907Z,987.02
2023-08-05T09:55:35.908Z,986.94
2023-08-05T09:56:35.890Z,987.00
2023-08-05T09:57:35.867Z,986.92
2023-08-05T09:58:35.870Z,986.87
2023-08-05T09:59:35.838Z,986.90
2023-08-05T10:00:35.878Z,986.89
2023-08-05T10:01:35.843Z,986.89
2023-08-05T10:02:35.875Z,986.83
2023-08-05T10:03:35.810Z,986.88
2023-08-05T10:04:35.844Z,986.79
2023-08-05T10:05:35.836Z,986.76
2023-08-05T10:06:35.764Z,986.78
2023-08-05T10:07:35.769Z,986.78
2023-08-05T10:08:35.753Z,986.71
2023-08-05T10:09:35.722Z,986.82
2023-08-05T10:10:35.756Z,986.77
2023-08-05T10:11:35.741Z,986.66
2023-08-05T10:12:35.719Z,986.66
2023-08-05T10:13:35.690Z,986.63
2023-08-05T10:14:35.691Z,986.70
2023-08-05T10:15:35.657Z,986.62
2023-08-05T10:16:35.707Z,986.63
2023-08-05T10:17:35.724Z,986.56
2023-08-05T10:18:35.649Z,986.56
2023-08-05T10:19:35.638Z,986.54
2023-08-05T10:20:35.606Z,986.55
2023-08-05T10:21:35.627Z,986.44
2023-08-05T10:22:35.605Z,986.56
2023-08-05T10:23:35.595Z,986.47
2023-08-05T10:24:35.599Z,986.56
2023-08-05T10:25:35.559Z,986.52
2023-08-05T10:26:35.583Z,986.52
2023-08-05T10:27:35.570Z,986.50
2023-08-05T10:28:35.568Z,986.53
2023-08-05T10:29:35.520Z,986.48
2023-08-05T10:30:35.571Z,986.51
2023-08-05T10:31:35.498Z,986.47
2023-08-05T10:32:35.567Z,986.47
2023-08-05T10:33:35.500Z,986.40
2023-08-05T10:34:36.490Z,986.43
2023-08-05T10:35:35.444Z,986.36
2023-08-05T10:36:35.448Z,986.39
2023-08-05T10:37:35.461Z,986.41
2023-08-05T10:38:36.547Z,986.36
2023-08-05T10:39:36.432Z,986.33
2023-08-05T10:40:35.422Z,986.33
2023-08-05T10:41:35.400Z,986.34
2023-08-05T10:42:35.447Z,986.32
2023-08-05T10:43:35.397Z,986.27
2023-08-05T10:44:37.066Z,986.24
2023-08-05T10:45:36.367Z,986.20
2023-08-05T10:46:35.435Z,986.27
2023-08-05T10:47:35.362Z,986.29
2023-08-05T10:48:35.346Z,986.23
2023-08-05T10:49:35.321Z,986.18
2023-08-05T10:50:36.296Z,986.17
2023-08-05T10:51:35.301Z,986.15
2023-08-05T10:52:35.280Z,986.07
2023-08-05T10:53:35.297Z,986.06
2023-08-05T10:54:35.304Z,986.05
2023-08-05T10:55:35.235Z,986.11
2023-08-05T10:56:38.320Z,986.01
2023-08-05T10:57:36.264Z,986.04
2023-08-05T10:58:35.231Z,985.97
2023-08-05T10:59:35.195Z,986.04
2023-08-05T11:00:35.220Z,985.99
2023-08-05T11:01:35.314Z,985.99
2023-08-05T11:02:35.282Z,985.95
2023-08-05T11:03:35.227Z,985.94
2023-08-05T11:04:35.191Z,985.88
2023-08-05T11:06:07.082Z,985.83
2023-08-05T11:06:35.129Z,985.85
2023-08-05T11:07:35.145Z,985.86
2023-08-05T11:08:35.121Z,985.86
2023-08-05T11:09:35.113Z,985.87
2023-08-05T11:10:35.119Z,985.72
2023-08-05T11:11:35.113Z,985.80
2023-08-05T11:12:35.068Z,985.69
2023-08-05T11:13:35.062Z,985.60
2023-08-05T11:14:35.052Z,985.67
2023-08-05T11:15:35.040Z,985.61
2023-08-05T11:16:35.056Z,985.58
2023-08-05T11:17:35.043Z,985.56
2023-08-05T11:18:35.018Z,985.56
2023-08-05T11:19:34.985Z,985.54
2023-08-05T11:20:35.010Z,985.50
2023-08-05T11:21:34.989Z,985.47
2023-08-05T11:22:34.983Z,985.46
2023-08-05T11:23:34.960Z,985.45
2023-08-05T11:24:34.927Z,985.41
2023-08-05T11:25:35.940Z,985.42
2023-08-05T11:26:34.950Z,985.49
2023-08-05T11:27:34.921Z,985.49
2023-08-05T11:28:35.184Z,985.44
2023-08-05T11:29:34.890Z,985.43
2023-08-05T11:30:34.900Z,985.44
2023-08-05T11:31:34.913Z,985.38
2023-08-05T11:32:34.945Z,985.43
2023-08-05T11:33:34.872Z,985.42
2023-08-05T11:34:34.842Z,985.39
2023-08-05T11:35:34.850Z,985.30
2023-08-05T11:36:34.828Z,985.41
2023-08-05T11:37:34.816Z,985.33
2023-08-05T11:38:34.794Z,985.33
2023-08-05T11:39:34.798Z,985.34
2023-08-05T11:40:34.779Z,985.38
2023-08-05T11:41:34.763Z,985.29
2023-08-05T11:42:34.784Z,985.41
2023-08-05T11:43:34.773Z,985.33
2023-08-05T11:44:34.754Z,985.34
2023-08-05T11:45:34.769Z,985.32
2023-08-05T11:46:44.499Z,985.28
2023-08-05T11:47:36.760Z,985.22
2023-08-05T11:48:34.698Z,985.21
2023-08-05T11:49:34.698Z,985.12
2023-08-05T11:50:34.673Z,985.10
2023-08-05T11:51:34.658Z,985.09
2023-08-05T11:52:34.692Z,985.06
2023-08-05T11:53:34.687Z,985.06
2023-08-05T11:54:34.643Z,985.07
2023-08-05T11:55:34.652Z,985.00
2023-08-05T11:56:34.614Z,985.01
2023-08-05T11:57:34.599Z,984.96
2023-08-05T11:58:34.623Z,984.95
2023-08-05T11:59:34.597Z,984.88
2023-08-05T12:00:34.591Z,984.89
2023-08-05T12:01:34.602Z,984.91
2023-08-05T12:02:34.692Z,984.88
2023-08-05T12:03:34.635Z,984.90
2023-08-05T12:04:34.561Z,984.88
2023-08-05T12:05:34.541Z,984.91
2023-08-05T12:06:34.513Z,984.88
2023-08-05T12:07:34.502Z,984.88
2023-08-05T12:08:34.528Z,984.86
2023-08-05T12:09:34.506Z,984.97
2023-08-05T12:10:34.472Z,984.92
2023-08-05T12:11:34.456Z,984.84
2023-08-05T12:12:34.473Z,984.87
2023-08-05T12:13:34.448Z,984.94
2023-08-05T12:14:34.433Z,984.86
2023-08-05T12:15:34.436Z,984.84
2023-08-05T12:16:35.857Z,984.83
2023-08-05T12:17:34.472Z,984.84
2023-08-05T12:18:34.383Z,984.82
2023-08-05T12:19:34.386Z,984.81
2023-08-05T12:20:34.394Z,984.85
2023-08-05T12:22:35.382Z,984.76
2023-08-05T12:23:34.358Z,984.70
2023-08-05T12:24:34.329Z,984.79
2023-08-05T12:25:34.357Z,984.84
2023-08-05T12:26:34.319Z,984.85
2023-08-05T12:27:34.288Z,984.76
2023-08-05T12:28:34.316Z,984.71
2023-08-05T12:29:34.287Z,984.73